Huvudsida
METAR-TAF:

METAR-TAF

Flygplatser :

Irkutsk, Ryssland

latitud: 52-16N, longitud: 104-19E, höjd: 513 m

Aktuellt väderrapport

Denna rapport gjordes för 23 minuter sedan, klockan 08:30 UTC
Vind 6 kt från väst, varierande mellan syd och väst/nordväst
Temperatur 18°C
Fuktighet 32%
Tryck 1014 hPa
Sikt 10 km eller mer
Inga moln under 1 500 m eller inga cumulonimbus

METAR: UIII 250830Z 26003MPS 190V300 CAVOK 18/01 Q1014 R30/60D NOSIG RMK QFE716/0955

Tid: 16:53 (08:53 UTC)

Väderprognos

Denna rapport gjordes för 53 minuter sedan, klockan 08:00 UTC
Prognos gäller från 25 kl. 09 UTC till 26 kl. 09 UTC
Vind 6 kt från syd/sydost
Sikt 10 km eller mer
Inga moln under 1 500 m eller inga cumulonimbus

TAF: UIII 250800Z 2509/2609 16003MPS CAVOK

Aktuella väderrapporter och prognoser från 4000 flygplatser (METAR- och TAF-rapporter).

De tillgängliga stationerna syns som gula och röda prickar på kartan.

För musen över prickarna för att se namnen på stationerna.

Klicka sedan för att få väderrapporter och prognoser.

För att ändra kartan: Klicka på de gröna knapparna med ett svart kors på för att zooma in; den gröna knappen med ett streck på för att zooma ut; eller på de gröna pilarna för angränsande kartor.


METAR-TAF: